Time;durP1;ratioP1;P1;durP2;ratioP2;P2;SDS_P1;SDS_P2;PMS_P1;PMS_P2;Temp;Humidity;BMP_temperature;BMP_pressure;BME280_temperature;BME280_humidity;BME280_pressure;Samples;Min_cycle;Max_cycle;Signal;HPM_P1;HPM_P2
2020/12/30 00:00:59;;;;;;;;;;;;;;;;;;5002958;28;20482;-63
2020/12/30 00:03:25;;;;;;;;;;;;;;;;;;4995337;28;20303;-63
2020/12/30 00:05:52;;;;;;;;;;;;;;;;;;4999782;28;20044;-63
2020/12/30 00:08:18;;;;;;;;;;;;;;;;;;4993345;28;19930;-63
2020/12/30 00:10:44;;;;;;;;;;;;;;;;;;4997578;28;19929;-63
2020/12/30 00:13:11;;;;;;;;;;;;;;;;;;5004499;28;19987;-63
2020/12/30 00:15:37;;;;;;;;;;;;;;;;;;5001126;28;19925;-63
2020/12/30 00:18:04;;;;;;;;;;;;;;;;;;4999812;28;19938;-63
2020/12/30 00:20:30;;;;;;;;;;;;;;;;;;4991319;28;19930;-63
2020/12/30 00:22:57;;;;;;;;;;;;;;;;;;5010058;28;19925;-63
2020/12/30 00:25:25;;;;;;;;;;;;;;;;;;4993938;28;19929;-63
2020/12/30 00:27:52;;;;;;;;;;;;;;;;;;4995233;28;19932;-63
2020/12/30 00:30:18;;;;;;;;;;;;;;;;;;4997456;28;19925;-63
2020/12/30 00:32:45;;;;;;;;;;;;;;;;;;5002237;28;19925;-63
2020/12/30 00:35:11;;;;;;;;;;;;;;;;;;4996854;28;19933;-63
2020/12/30 00:37:38;;;;;;;;;;;;;;;;;;4988742;28;19948;-63
2020/12/30 00:40:04;;;;;;;;;;;;;;;;;;4994481;28;19929;-63
2020/12/30 00:42:31;;;;;;;;;;;;;;;;;;4995973;28;19972;-63
2020/12/30 00:44:57;;;;;;;;;;;;;;;;;;4995485;28;19929;-63
2020/12/30 00:47:24;;;;;;;;;;;;;;;;;;4996584;28;19934;-63
2020/12/30 00:49:50;;;;;;;;;;;;;;;;;;4992014;28;20017;-63
2020/12/30 00:52:17;;;;;;;;;;;;;;;;;;5000218;28;19932;-63
2020/12/30 00:54:43;;;;;;;;;;;;;;;;;;4997698;28;19925;-63
2020/12/30 00:57:10;;;;;;;;;;;;;;;;;;4997254;28;20568;-63
2020/12/30 00:59:36;;;;;;;;;;;;;;;;;;4985860;28;19968;-63
2020/12/30 01:02:03;;;;;;;;;;;;;;;;;;4997612;28;19947;-63
2020/12/30 01:04:29;;;;;;;;;;;;;;;;;;5000804;28;19925;-63
2020/12/30 01:06:56;;;;;;;;;;;;;;;;;;5002446;28;19925;-63
2020/12/30 01:09:22;;;;;;;;;;;;;;;;;;4988750;28;19926;-63
2020/12/30 01:11:49;;;;;;;;;;;;;;;;;;4995569;28;19932;-63
2020/12/30 01:14:15;;;;;;;;;;;;;;;;;;5001023;28;20322;-63
2020/12/30 01:16:42;;;;;;;;;;;;;;;;;;5004927;28;19929;-63
2020/12/30 01:19:08;;;;;;;;;;;;;;;;;;4992903;28;20329;-63
2020/12/30 01:21:35;;;;;;;;;;;;;;;;;;5000479;28;19941;-63
2020/12/30 01:24:01;;;;;;;;;;;;;;;;;;4998220;28;21455;-64
2020/12/30 01:26:27;;;;;;;;;;;;;;;;;;4992001;28;19926;-63
2020/12/30 01:28:54;;;;;;;;;;;;;;;;;;4997300;28;19936;-64
2020/12/30 01:31:20;;;;;;;;;;;;;;;;;;4994586;28;19933;-63
2020/12/30 01:33:47;;;;;;;;;;;;;;;;;;4991261;28;19938;-64
2020/12/30 01:36:13;;;;;;;;;;;;;;;;;;4996355;28;19926;-63
2020/12/30 01:38:40;;;;;;;;;;;;;;;;;;4991107;28;19925;-64
2020/12/30 01:41:06;;;;;;;;;;;;;;;;;;4995604;28;19937;-63
2020/12/30 01:43:32;;;;;;;;;;;;;;;;;;4995462;28;19926;-64
2020/12/30 01:45:59;;;;;;;;;;;;;;;;;;5005648;28;19932;-63
2020/12/30 01:48:25;;;;;;;;;;;;;;;;;;4991812;28;19926;-64
2020/12/30 01:50:52;;;;;;;;;;;;;;;;;;4995097;28;20430;-64
2020/12/30 01:53:18;;;;;;;;;;;;;;;;;;4994802;28;20408;-64
2020/12/30 01:55:45;;;;;;;;;;;;;;;;;;4985843;28;19926;-63
2020/12/30 01:58:11;;;;;;;;;;;;;;;;;;4998253;28;20416;-64
2020/12/30 02:00:38;;;;;;;;;;;;;;;;;;4988073;28;20500;-64
2020/12/30 02:03:05;;;;;;;;;;;;;;;;;;5007963;28;20307;-64
2020/12/30 02:05:32;;;;;;;;;;;;;;;;;;5000964;28;20334;-64
2020/12/30 02:07:58;;;;;;;;;;;;;;;;;;5002530;28;20303;-64
2020/12/30 02:10:24;;;;;;;;;;;;;;;;;;4992491;28;19999;-63
2020/12/30 02:12:51;;;;;;;;;;;;;;;;;;4986349;28;19949;-64
2020/12/30 02:15:17;;;;;;;;;;;;;;;;;;4998224;28;19926;-64
2020/12/30 02:17:44;;;;;;;;;;;;;;;;;;4996838;28;19934;-64
2020/12/30 02:20:10;;;;;;;;;;;;;;;;;;5000431;28;19984;-64
2020/12/30 02:22:37;;;;;;;;;;;;;;;;;;4996172;28;19951;-64
2020/12/30 02:25:03;;;;;;;;;;;;;;;;;;4997392;28;19926;-63
2020/12/30 02:27:30;;;;;;;;;;;;;;;;;;4994393;28;19926;-63
2020/12/30 02:29:56;;;;;;;;;;;;;;;;;;5000438;28;19979;-64
2020/12/30 02:32:22;;;;;;;;;;;;;;;;;;4997167;28;20578;-64
2020/12/30 02:34:49;;;;;;;;;;;;;;;;;;5000147;28;19925;-64
2020/12/30 02:37:16;;;;;;;;;;;;;;;;;;4991840;28;19926;-64
2020/12/30 02:39:42;;;;;;;;;;;;;;;;;;4997345;28;19929;-64
2020/12/30 02:42:09;;;;;;;;;;;;;;;;;;4997898;28;19956;-63
2020/12/30 02:44:35;;;;;;;;;;;;;;;;;;5001461;28;19926;-63
2020/12/30 02:47:01;;;;;;;;;;;;;;;;;;4990615;28;19926;-64
2020/12/30 02:49:28;;;;;;;;;;;;;;;;;;5001831;28;19932;-63
2020/12/30 02:51:54;;;;;;;;;;;;;;;;;;4987144;28;19934;-64
2020/12/30 02:54:21;;;;;;;;;;;;;;;;;;4985468;28;19948;-63
2020/12/30 02:56:47;;;;;;;;;;;;;;;;;;4999295;28;20314;-63
2020/12/30 02:59:13;;;;;;;;;;;;;;;;;;4993384;28;20122;-63
2020/12/30 03:01:40;;;;;;;;;;;;;;;;;;4995381;28;19926;-63
2020/12/30 03:04:06;;;;;;;;;;;;;;;;;;4999091;28;19937;-63
2020/12/30 03:06:33;;;;;;;;;;;;;;;;;;4992789;28;19926;-63
2020/12/30 03:08:59;;;;;;;;;;;;;;;;;;4996871;28;19925;-64
2020/12/30 03:11:26;;;;;;;;;;;;;;;;;;4990214;28;19934;-63
2020/12/30 03:13:53;;;;;;;;;;;;;;;;;;4996156;28;19932;-63
2020/12/30 03:16:19;;;;;;;;;;;;;;;;;;4983942;28;19926;-63
2020/12/30 03:18:45;;;;;;;;;;;;;;;;;;5003868;28;19929;-63
2020/12/30 03:21:12;;;;;;;;;;;;;;;;;;4999384;28;20489;-64
2020/12/30 03:23:38;;;;;;;;;;;;;;;;;;4997718;28;20063;-64
2020/12/30 03:26:05;;;;;;;;;;;;;;;;;;4998824;28;19925;-63
2020/12/30 03:28:31;;;;;;;;;;;;;;;;;;4986011;28;19932;-63
2020/12/30 03:30:58;;;;;;;;;;;;;;;;;;5000899;28;19926;-64
2020/12/30 03:33:24;;;;;;;;;;;;;;;;;;4990730;28;19930;-64
2020/12/30 03:35:51;;;;;;;;;;;;;;;;;;4991396;28;19945;-64
2020/12/30 03:38:17;;;;;;;;;;;;;;;;;;4996265;28;19925;-63
2020/12/30 03:40:44;;;;;;;;;;;;;;;;;;4994290;28;19930;-64
2020/12/30 03:43:10;;;;;;;;;;;;;;;;;;4993964;28;20455;-63
2020/12/30 03:45:37;;;;;;;;;;;;;;;;;;4985934;28;19976;-64
2020/12/30 03:48:03;;;;;;;;;;;;;;;;;;4995166;28;19926;-64
2020/12/30 03:50:29;;;;;;;;;;;;;;;;;;4995328;28;20038;-64
2020/12/30 03:52:56;;;;;;;;;;;;;;;;;;4996981;28;19926;-64
2020/12/30 03:55:22;;;;;;;;;;;;;;;;;;4998819;28;19925;-63
2020/12/30 03:57:49;;;;;;;;;;;;;;;;;;4995335;28;19926;-64
2020/12/30 04:00:15;;;;;;;;;;;;;;;;;;4995852;28;19925;-63
2020/12/30 04:02:42;;;;;;;;;;;;;;;;;;4993371;28;19933;-64
2020/12/30 04:05:08;;;;;;;;;;;;;;;;;;4996302;28;19981;-64
2020/12/30 04:07:35;;;;;;;;;;;;;;;;;;4989888;28;19932;-64
2020/12/30 04:10:01;;;;;;;;;;;;;;;;;;4994928;28;19930;-63
2020/12/30 04:12:28;;;;;;;;;;;;;;;;;;4990755;28;19932;-64
2020/12/30 04:14:54;;;;;;;;;;;;;;;;;;4995483;28;19933;-64
2020/12/30 04:17:21;;;;;;;;;;;;;;;;;;4993141;28;19987;-64
2020/12/30 04:19:47;;;;;;;;;;;;;;;;;;4999259;28;19930;-64
2020/12/30 04:22:13;;;;;;;;;;;;;;;;;;4994105;28;19937;-63
2020/12/30 04:24:40;;;;;;;;;;;;;;;;;;4994051;28;19930;-64
2020/12/30 04:27:06;;;;;;;;;;;;;;;;;;4985646;28;19926;-63
2020/12/30 04:29:33;;;;;;;;;;;;;;;;;;4991515;28;20341;-63
2020/12/30 04:31:59;;;;;;;;;;;;;;;;;;4994096;28;19926;-63
2020/12/30 04:34:26;;;;;;;;;;;;;;;;;;4993748;28;19925;-63
2020/12/30 04:36:52;;;;;;;;;;;;;;;;;;4994715;28;19933;-63
2020/12/30 04:39:19;;;;;;;;;;;;;;;;;;4989398;28;19925;-64
2020/12/30 04:41:45;;;;;;;;;;;;;;;;;;4989137;28;19930;-64
2020/12/30 04:44:12;;;;;;;;;;;;;;;;;;5001856;28;19929;-64
2020/12/30 04:46:38;;;;;;;;;;;;;;;;;;4993200;28;19932;-64
2020/12/30 04:49:05;;;;;;;;;;;;;;;;;;4997976;28;19977;-63
2020/12/30 04:51:31;;;;;;;;;;;;;;;;;;4978468;28;19926;-64
2020/12/30 04:53:58;;;;;;;;;;;;;;;;;;4993463;28;20395;-63
2020/12/30 04:56:24;;;;;;;;;;;;;;;;;;5004487;28;19933;-63
2020/12/30 04:58:51;;;;;;;;;;;;;;;;;;4987774;28;19976;-63
2020/12/30 05:01:17;;;;;;;;;;;;;;;;;;5001068;28;20393;-64
2020/12/30 05:03:44;;;;;;;;;;;;;;;;;;5005277;28;19936;-63
2020/12/30 05:06:10;;;;;;;;;;;;;;;;;;4997537;28;19933;-64
2020/12/30 05:08:37;;;;;;;;;;;;;;;;;;4996505;28;20536;-64
2020/12/30 05:11:03;;;;;;;;;;;;;;;;;;5026225;23;19929;-67
2020/12/30 05:13:29;;;;;;;;;;;;;;;;;;5011187;28;20016;-68
2020/12/30 05:15:56;;;;;;;;;;;;;;;;;;5010844;28;19931;-67
2020/12/30 05:18:22;;;;;;;;;;;;;;;;;;5010221;28;20298;-67
2020/12/30 05:20:49;;;;;;;;;;;;;;;;;;5011287;28;19929;-67
2020/12/30 05:23:15;;;;;;;;;;;;;;;;;;5010462;28;19925;-66
2020/12/30 05:25:42;;;;;;;;;;;;;;;;;;5011884;28;19935;-67
2020/12/30 05:28:08;;;;;;;;;;;;;;;;;;5009287;28;19926;-67
2020/12/30 05:30:36;;;;;;;;;;;;;;;;;;5007247;28;19971;-67
2020/12/30 05:33:02;;;;;;;;;;;;;;;;;;5018481;28;19972;-67
2020/12/30 05:35:29;;;;;;;;;;;;;;;;;;5014935;28;19926;-67
2020/12/30 05:37:55;;;;;;;;;;;;;;;;;;5015393;28;19930;-68
2020/12/30 05:40:22;;;;;;;;;;;;;;;;;;5015641;28;20349;-67
2020/12/30 05:42:48;;;;;;;;;;;;;;;;;;5015250;28;20453;-67
2020/12/30 05:45:15;;;;;;;;;;;;;;;;;;5015490;28;19926;-68
2020/12/30 05:47:41;;;;;;;;;;;;;;;;;;5020781;28;19926;-67
2020/12/30 05:50:12;;;;;;;;;;;;;;;;;;5023026;28;19951;-68
2020/12/30 05:52:38;;;;;;;;;;;;;;;;;;5015997;28;20248;-67
2020/12/30 05:55:05;;;;;;;;;;;;;;;;;;5015290;28;19926;-68
2020/12/30 05:57:31;;;;;;;;;;;;;;;;;;5014774;28;19933;-68
2020/12/30 05:59:58;;;;;;;;;;;;;;;;;;5023514;28;19925;-68
2020/12/30 06:02:24;;;;;;;;;;;;;;;;;;5014884;28;19930;-67
2020/12/30 06:04:51;;;;;;;;;;;;;;;;;;5015140;28;19990;-67
2020/12/30 06:07:17;;;;;;;;;;;;;;;;;;5014983;28;20341;-68
2020/12/30 06:09:44;;;;;;;;;;;;;;;;;;5015191;28;19929;-67
2020/12/30 06:12:10;;;;;;;;;;;;;;;;;;5003827;28;20372;-68
2020/12/30 06:14:37;;;;;;;;;;;;;;;;;;5011045;28;19930;-67
2020/12/30 06:17:03;;;;;;;;;;;;;;;;;;5014662;28;20296;-67
2020/12/30 06:19:30;;;;;;;;;;;;;;;;;;5012063;28;19926;-68
2020/12/30 06:21:56;;;;;;;;;;;;;;;;;;5014757;28;20294;-68
2020/12/30 06:24:23;;;;;;;;;;;;;;;;;;5015288;28;19929;-68
2020/12/30 06:26:49;;;;;;;;;;;;;;;;;;5015684;28;20398;-68
2020/12/30 06:29:16;;;;;;;;;;;;;;;;;;5015267;28;19941;-68
2020/12/30 06:31:42;;;;;;;;;;;;;;;;;;5015439;28;19925;-68
2020/12/30 06:34:08;;;;;;;;;;;;;;;;;;5014059;28;19932;-67
2020/12/30 06:36:35;;;;;;;;;;;;;;;;;;5016045;28;19925;-69
2020/12/30 06:39:01;;;;;;;;;;;;;;;;;;5015985;28;19971;-68
2020/12/30 06:41:28;;;;;;;;;;;;;;;;;;5013791;28;19926;-67
2020/12/30 06:43:54;;;;;;;;;;;;;;;;;;5014404;28;19929;-67
2020/12/30 06:46:21;;;;;;;;;;;;;;;;;;5015600;28;19971;-68
2020/12/30 06:48:47;;;;;;;;;;;;;;;;;;5034436;28;19925;-68
2020/12/30 06:51:14;;;;;;;;;;;;;;;;;;5026072;28;20397;-67
2020/12/30 06:53:40;;;;;;;;;;;;;;;;;;5014476;28;19937;-68
2020/12/30 06:56:08;;;;;;;;;;;;;;;;;;5014404;28;20822;-68
2020/12/30 06:58:35;;;;;;;;;;;;;;;;;;5014276;28;19980;-67
2020/12/30 07:01:01;;;;;;;;;;;;;;;;;;5013620;28;19972;-68
2020/12/30 07:03:28;;;;;;;;;;;;;;;;;;5014317;28;20327;-68
2020/12/30 07:05:54;;;;;;;;;;;;;;;;;;5014633;28;19926;-68
2020/12/30 07:08:21;;;;;;;;;;;;;;;;;;5013580;28;19930;-68
2020/12/30 07:10:47;;;;;;;;;;;;;;;;;;5012719;28;19932;-71
2020/12/30 07:13:14;;;;;;;;;;;;;;;;;;5013371;28;20415;-68
2020/12/30 07:15:40;;;;;;;;;;;;;;;;;;5013573;28;19929;-68
2020/12/30 07:18:07;;;;;;;;;;;;;;;;;;5013091;28;20417;-69
2020/12/30 07:20:33;;;;;;;;;;;;;;;;;;5008428;28;19925;-69
2020/12/30 07:22:59;;;;;;;;;;;;;;;;;;5012188;28;19930;-68
2020/12/30 07:25:27;;;;;;;;;;;;;;;;;;5012536;28;19925;-67
2020/12/30 07:27:53;;;;;;;;;;;;;;;;;;5008210;28;19941;-67
2020/12/30 07:30:19;;;;;;;;;;;;;;;;;;5009834;28;19925;-67
2020/12/30 07:32:46;;;;;;;;;;;;;;;;;;5004100;28;19929;-67
2020/12/30 07:35:12;;;;;;;;;;;;;;;;;;5006286;28;19926;-67
2020/12/30 07:37:39;;;;;;;;;;;;;;;;;;5010719;28;19926;-67
2020/12/30 07:40:05;;;;;;;;;;;;;;;;;;5012395;28;19933;-68
2020/12/30 07:42:32;;;;;;;;;;;;;;;;;;4996655;28;19926;-67
2020/12/30 07:44:58;;;;;;;;;;;;;;;;;;5006532;28;19972;-68
2020/12/30 07:47:24;;;;;;;;;;;;;;;;;;5012174;28;20288;-66
2020/12/30 07:49:51;;;;;;;;;;;;;;;;;;5011491;28;20387;-68
2020/12/30 07:52:17;;;;;;;;;;;;;;;;;;5011839;28;19979;-67
2020/12/30 07:54:44;;;;;;;;;;;;;;;;;;5007809;28;19925;-67
2020/12/30 07:57:11;;;;;;;;;;;;;;;;;;5011787;28;20421;-68
2020/12/30 07:59:38;;;;;;;;;;;;;;;;;;5011707;28;19932;-67
2020/12/30 08:02:04;;;;;;;;;;;;;;;;;;5011502;28;19932;-67
2020/12/30 08:04:30;;;;;;;;;;;;;;;;;;5012438;28;19975;-67
2020/12/30 08:06:57;;;;;;;;;;;;;;;;;;5011858;28;19933;-67
2020/12/30 08:09:23;;;;;;;;;;;;;;;;;;5011579;28;20040;-66
2020/12/30 08:11:50;;;;;;;;;;;;;;;;;;5011231;28;19929;-67
2020/12/30 08:14:16;;;;;;;;;;;;;;;;;;5011644;28;19925;-67
2020/12/30 08:16:43;;;;;;;;;;;;;;;;;;5011917;28;20016;-67
2020/12/30 08:19:09;;;;;;;;;;;;;;;;;;5011653;28;19926;-67
2020/12/30 08:21:36;;;;;;;;;;;;;;;;;;5011976;28;19925;-67
2020/12/30 08:24:02;;;;;;;;;;;;;;;;;;5011223;28;19934;-66
2020/12/30 08:26:28;;;;;;;;;;;;;;;;;;5010248;28;20060;-66
2020/12/30 08:28:55;;;;;;;;;;;;;;;;;;5023800;28;19932;-67
2020/12/30 08:31:21;;;;;;;;;;;;;;;;;;5006259;28;20387;-66
2020/12/30 08:33:48;;;;;;;;;;;;;;;;;;5008080;28;19945;-68
2020/12/30 08:36:14;;;;;;;;;;;;;;;;;;5011209;28;19941;-66
2020/12/30 08:38:41;;;;;;;;;;;;;;;;;;5006495;28;20438;-66
2020/12/30 08:41:07;;;;;;;;;;;;;;;;;;5011363;28;20302;-66
2020/12/30 08:43:35;;;;;;;;;;;;;;;;;;5010635;28;19929;-68
2020/12/30 08:46:01;;;;;;;;;;;;;;;;;;5011408;28;19948;-67
2020/12/30 08:48:28;;;;;;;;;;;;;;;;;;5008337;28;19926;-67
2020/12/30 08:50:55;;;;;;;;;;;;;;;;;;5011344;28;20391;-67
2020/12/30 08:53:21;;;;;;;;;;;;;;;;;;5011024;28;20417;-67
2020/12/30 08:55:47;;;;;;;;;;;;;;;;;;5011580;28;20287;-67
2020/12/30 08:58:14;;;;;;;;;;;;;;;;;;5003454;28;19926;-67
2020/12/30 09:00:41;;;;;;;;;;;;;;;;;;5011658;28;20397;-66
2020/12/30 09:03:07;;;;;;;;;;;;;;;;;;5011014;28;19976;-66
2020/12/30 09:05:34;;;;;;;;;;;;;;;;;;5009090;28;19926;-66
2020/12/30 09:08:00;;;;;;;;;;;;;;;;;;5014683;28;19936;-68
2020/12/30 09:10:27;;;;;;;;;;;;;;;;;;5014959;28;19933;-67
2020/12/30 09:12:53;;;;;;;;;;;;;;;;;;5014595;28;19984;-66
2020/12/30 09:15:19;;;;;;;;;;;;;;;;;;5014946;28;19929;-69
2020/12/30 09:17:46;;;;;;;;;;;;;;;;;;5013468;28;19971;-68
2020/12/30 09:20:12;;;;;;;;;;;;;;;;;;5011324;28;19933;-68
2020/12/30 09:22:39;;;;;;;;;;;;;;;;;;5012320;28;20330;-69
2020/12/30 09:25:05;;;;;;;;;;;;;;;;;;5014419;28;19971;-68
2020/12/30 09:27:32;;;;;;;;;;;;;;;;;;5001398;28;19925;-68
2020/12/30 09:29:58;;;;;;;;;;;;;;;;;;5011153;28;20257;-68
2020/12/30 09:32:25;;;;;;;;;;;;;;;;;;5004175;28;20019;-66
2020/12/30 09:34:51;;;;;;;;;;;;;;;;;;5005919;28;19926;-69
2020/12/30 09:37:18;;;;;;;;;;;;;;;;;;5011881;28;20416;-66
2020/12/30 09:39:44;;;;;;;;;;;;;;;;;;5008281;28;20020;-66
2020/12/30 09:42:11;;;;;;;;;;;;;;;;;;5013393;28;19952;-67
2020/12/30 09:44:37;;;;;;;;;;;;;;;;;;5007972;28;19925;-66
2020/12/30 09:47:03;;;;;;;;;;;;;;;;;;5012873;28;19956;-67
2020/12/30 09:49:30;;;;;;;;;;;;;;;;;;5009445;28;19935;-67
2020/12/30 09:51:56;;;;;;;;;;;;;;;;;;5005706;28;19984;-66
2020/12/30 09:54:23;;;;;;;;;;;;;;;;;;5013216;28;20299;-66
2020/12/30 09:56:49;;;;;;;;;;;;;;;;;;5008654;28;20017;-67
2020/12/30 09:59:20;;;;;;;;;;;;;;;;;;5011557;28;19991;-67
2020/12/30 10:01:47;;;;;;;;;;;;;;;;;;4999709;28;20427;-67
2020/12/30 10:04:13;;;;;;;;;;;;;;;;;;5011937;28;20310;-68
2020/12/30 10:06:40;;;;;;;;;;;;;;;;;;5001436;28;19936;-67
2020/12/30 10:09:06;;;;;;;;;;;;;;;;;;5010833;28;21437;-68
2020/12/30 10:11:33;;;;;;;;;;;;;;;;;;5012147;28;19926;-67
2020/12/30 10:13:59;;;;;;;;;;;;;;;;;;5011886;28;19925;-67
2020/12/30 10:16:26;;;;;;;;;;;;;;;;;;5009557;28;20300;-67
2020/12/30 10:18:52;;;;;;;;;;;;;;;;;;5009877;28;19925;-67
2020/12/30 10:21:18;;;;;;;;;;;;;;;;;;5009834;28;20459;-66
2020/12/30 10:23:45;;;;;;;;;;;;;;;;;;5011094;28;20051;-66
2020/12/30 10:26:11;;;;;;;;;;;;;;;;;;5009696;28;20016;-66
2020/12/30 10:28:38;;;;;;;;;;;;;;;;;;5009381;28;19925;-67
2020/12/30 10:31:04;;;;;;;;;;;;;;;;;;5008822;28;19926;-66
2020/12/30 10:33:31;;;;;;;;;;;;;;;;;;5006882;28;20311;-66
2020/12/30 10:35:57;;;;;;;;;;;;;;;;;;5009595;28;19936;-66
2020/12/30 10:38:24;;;;;;;;;;;;;;;;;;5007789;28;19947;-67
2020/12/30 10:40:50;;;;;;;;;;;;;;;;;;5011269;28;19999;-67
2020/12/30 10:43:17;;;;;;;;;;;;;;;;;;5009712;28;20288;-67
2020/12/30 10:45:43;;;;;;;;;;;;;;;;;;5008232;28;19972;-66
2020/12/30 10:48:10;;;;;;;;;;;;;;;;;;5007345;28;19940;-66
2020/12/30 10:50:36;;;;;;;;;;;;;;;;;;5007791;28;20646;-66
2020/12/30 10:53:03;;;;;;;;;;;;;;;;;;5007168;28;19979;-67
2020/12/30 10:55:29;;;;;;;;;;;;;;;;;;5009130;28;20163;-66
2020/12/30 10:57:56;;;;;;;;;;;;;;;;;;5010004;28;20311;-66
2020/12/30 11:00:22;;;;;;;;;;;;;;;;;;5005030;28;19926;-66
2020/12/30 11:02:49;;;;;;;;;;;;;;;;;;5009117;28;19925;-66
2020/12/30 11:05:15;;;;;;;;;;;;;;;;;;5011069;28;20405;-67
2020/12/30 11:07:42;;;;;;;;;;;;;;;;;;5009915;28;19948;-65
2020/12/30 11:10:08;;;;;;;;;;;;;;;;;;5008981;28;20506;-65
2020/12/30 11:12:36;;;;;;;;;;;;;;;;;;5022644;23;19932;-62
2020/12/30 11:15:02;;;;;;;;;;;;;;;;;;5001568;28;19925;-64
2020/12/30 11:17:29;;;;;;;;;;;;;;;;;;5005075;28;19933;-63
2020/12/30 11:19:55;;;;;;;;;;;;;;;;;;5005491;28;20407;-63
2020/12/30 11:22:22;;;;;;;;;;;;;;;;;;5005187;28;19926;-63
2020/12/30 11:24:48;;;;;;;;;;;;;;;;;;5004812;28;19981;-63
2020/12/30 11:27:15;;;;;;;;;;;;;;;;;;5005909;28;19926;-63
2020/12/30 11:29:41;;;;;;;;;;;;;;;;;;5009701;28;19933;-63
2020/12/30 11:32:08;;;;;;;;;;;;;;;;;;5006787;28;19926;-63
2020/12/30 11:34:34;;;;;;;;;;;;;;;;;;5008091;28;19925;-63
2020/12/30 11:37:01;;;;;;;;;;;;;;;;;;5008085;28;19932;-63
2020/12/30 11:39:27;;;;;;;;;;;;;;;;;;5005523;28;19984;-63
2020/12/30 11:41:54;;;;;;;;;;;;;;;;;;5009210;28;19932;-63
2020/12/30 11:44:20;;;;;;;;;;;;;;;;;;5004468;28;20126;-64
2020/12/30 11:46:47;;;;;;;;;;;;;;;;;;5006011;28;20059;-63
2020/12/30 11:49:13;;;;;;;;;;;;;;;;;;5008991;28;19947;-63
2020/12/30 11:51:39;;;;;;;;;;;;;;;;;;5008297;28;19947;-63
2020/12/30 11:54:06;;;;;;;;;;;;;;;;;;5008127;28;20280;-63
2020/12/30 11:56:32;;;;;;;;;;;;;;;;;;5009010;28;19987;-64
2020/12/30 11:58:59;;;;;;;;;;;;;;;;;;5005919;28;19926;-63
2020/12/30 12:01:25;;;;;;;;;;;;;;;;;;5005419;28;19934;-63
2020/12/30 12:03:52;;;;;;;;;;;;;;;;;;5009611;28;19937;-63
2020/12/30 12:06:18;;;;;;;;;;;;;;;;;;5009345;28;19932;-63
2020/12/30 12:08:45;;;;;;;;;;;;;;;;;;5008610;28;19926;-65
2020/12/30 12:11:11;;;;;;;;;;;;;;;;;;5010109;28;19932;-63
2020/12/30 12:13:38;;;;;;;;;;;;;;;;;;5007211;28;19974;-63
2020/12/30 12:16:04;;;;;;;;;;;;;;;;;;5008263;28;19957;-63
2020/12/30 12:18:30;;;;;;;;;;;;;;;;;;5008567;28;19979;-63
2020/12/30 12:20:57;;;;;;;;;;;;;;;;;;5004070;28;19935;-63
2020/12/30 12:23:23;;;;;;;;;;;;;;;;;;5004516;28;19926;-63
2020/12/30 12:25:50;;;;;;;;;;;;;;;;;;5006335;28;19926;-62
2020/12/30 12:28:16;;;;;;;;;;;;;;;;;;5006367;28;19933;-62
2020/12/30 12:30:43;;;;;;;;;;;;;;;;;;5005367;28;19930;-63
2020/12/30 12:33:09;;;;;;;;;;;;;;;;;;5005896;28;19949;-64
2020/12/30 12:35:35;;;;;;;;;;;;;;;;;;5007602;28;19926;-62
2020/12/30 12:38:02;;;;;;;;;;;;;;;;;;5008507;28;19925;-63
2020/12/30 12:40:28;;;;;;;;;;;;;;;;;;5012666;28;19986;-64
2020/12/30 12:42:55;;;;;;;;;;;;;;;;;;5012158;28;19932;-63
2020/12/30 12:45:21;;;;;;;;;;;;;;;;;;5014132;28;20001;-63
2020/12/30 12:47:48;;;;;;;;;;;;;;;;;;5010559;28;19981;-62
2020/12/30 12:50:14;;;;;;;;;;;;;;;;;;5012342;28;19934;-63
2020/12/30 12:52:41;;;;;;;;;;;;;;;;;;5011053;28;20243;-63
2020/12/30 12:55:07;;;;;;;;;;;;;;;;;;5012013;28;19953;-63
2020/12/30 12:57:33;;;;;;;;;;;;;;;;;;5008224;28;20015;-63
2020/12/30 13:00:00;;;;;;;;;;;;;;;;;;5014629;28;20430;-63
2020/12/30 13:02:27;;;;;;;;;;;;;;;;;;5013405;28;19956;-64
2020/12/30 13:04:53;;;;;;;;;;;;;;;;;;5013404;28;19926;-64
2020/12/30 13:07:20;;;;;;;;;;;;;;;;;;5010916;28;19929;-64
2020/12/30 13:09:46;;;;;;;;;;;;;;;;;;5012456;28;20337;-64
2020/12/30 13:12:13;;;;;;;;;;;;;;;;;;5010272;28;20438;-64
2020/12/30 13:14:40;;;;;;;;;;;;;;;;;;5010443;28;19943;-63
2020/12/30 13:17:06;;;;;;;;;;;;;;;;;;5009492;28;19948;-63
2020/12/30 13:19:33;;;;;;;;;;;;;;;;;;5012985;28;20025;-63
2020/12/30 13:21:59;;;;;;;;;;;;;;;;;;5013452;28;19931;-64
2020/12/30 13:24:26;;;;;;;;;;;;;;;;;;5011182;28;20838;-63
2020/12/30 13:26:52;;;;;;;;;;;;;;;;;;5013767;28;19926;-63
2020/12/30 13:29:19;;;;;;;;;;;;;;;;;;5011950;28;19925;-62
2020/12/30 13:31:45;;;;;;;;;;;;;;;;;;5010178;28;19968;-62
2020/12/30 13:34:12;;;;;;;;;;;;;;;;;;5010018;28;20016;-63
2020/12/30 13:36:38;;;;;;;;;;;;;;;;;;5012717;28;19925;-63
2020/12/30 13:39:05;;;;;;;;;;;;;;;;;;5012286;28;19925;-64
2020/12/30 13:41:31;;;;;;;;;;;;;;;;;;5008229;28;19929;-63
2020/12/30 13:43:57;;;;;;;;;;;;;;;;;;5012084;28;19929;-63
2020/12/30 13:46:26;;;;;;;;;;;;;;;;;;5009657;28;20395;-63
2020/12/30 13:48:52;;;;;;;;;;;;;;;;;;5009332;28;19971;-63
2020/12/30 13:51:19;;;;;;;;;;;;;;;;;;5012303;28;19938;-63
2020/12/30 13:53:45;;;;;;;;;;;;;;;;;;5007891;28;19949;-63
2020/12/30 13:56:11;;;;;;;;;;;;;;;;;;5011980;28;19925;-63
2020/12/30 13:58:38;;;;;;;;;;;;;;;;;;5010825;28;20395;-65
2020/12/30 14:01:04;;;;;;;;;;;;;;;;;;5012154;28;20272;-63
2020/12/30 14:03:31;;;;;;;;;;;;;;;;;;5013395;28;20384;-63
2020/12/30 14:05:57;;;;;;;;;;;;;;;;;;5012498;28;20318;-64
2020/12/30 14:08:24;;;;;;;;;;;;;;;;;;5010698;28;19976;-63
2020/12/30 14:10:50;;;;;;;;;;;;;;;;;;5012554;28;19940;-63
2020/12/30 14:13:17;;;;;;;;;;;;;;;;;;5013225;28;19930;-64
2020/12/30 14:15:43;;;;;;;;;;;;;;;;;;5009794;28;19980;-64
2020/12/30 14:18:10;;;;;;;;;;;;;;;;;;5010598;28;19929;-64
2020/12/30 14:20:37;;;;;;;;;;;;;;;;;;5012655;28;19926;-64
2020/12/30 14:23:03;;;;;;;;;;;;;;;;;;5011854;28;19980;-64
2020/12/30 14:25:29;;;;;;;;;;;;;;;;;;5011825;28;20127;-64
2020/12/30 14:27:56;;;;;;;;;;;;;;;;;;5011291;28;20272;-64
2020/12/30 14:30:22;;;;;;;;;;;;;;;;;;5012057;28;20016;-64
2020/12/30 14:32:49;;;;;;;;;;;;;;;;;;5011371;28;19981;-62
2020/12/30 14:35:15;;;;;;;;;;;;;;;;;;5011401;28;19925;-63
2020/12/30 14:37:42;;;;;;;;;;;;;;;;;;5012072;28;20055;-63
2020/12/30 14:40:08;;;;;;;;;;;;;;;;;;5014057;28;20012;-62
2020/12/30 14:42:35;;;;;;;;;;;;;;;;;;5007767;28;20430;-62
2020/12/30 14:45:01;;;;;;;;;;;;;;;;;;5009754;28;20311;-62
2020/12/30 14:47:27;;;;;;;;;;;;;;;;;;5009368;28;20052;-63
2020/12/30 14:49:54;;;;;;;;;;;;;;;;;;5011012;28;19933;-63
2020/12/30 14:52:20;;;;;;;;;;;;;;;;;;5007190;28;20055;-63
2020/12/30 14:54:47;;;;;;;;;;;;;;;;;;5009840;28;19934;-63
2020/12/30 14:57:13;;;;;;;;;;;;;;;;;;5011441;28;19984;-63
2020/12/30 14:59:42;;;;;;;;;;;;;;;;;;5012138;28;19932;-63
2020/12/30 15:02:08;;;;;;;;;;;;;;;;;;5010240;28;19980;-63
2020/12/30 15:04:35;;;;;;;;;;;;;;;;;;5011184;28;19936;-64
2020/12/30 15:07:01;;;;;;;;;;;;;;;;;;5011362;28;20997;-64
2020/12/30 15:09:28;;;;;;;;;;;;;;;;;;5012950;28;19933;-63
2020/12/30 15:11:55;;;;;;;;;;;;;;;;;;5012863;28;19926;-63
2020/12/30 15:14:21;;;;;;;;;;;;;;;;;;5013761;28;19926;-63
2020/12/30 15:16:48;;;;;;;;;;;;;;;;;;5011324;28;19948;-63
2020/12/30 15:19:14;;;;;;;;;;;;;;;;;;5010035;28;19983;-63
2020/12/30 15:21:41;;;;;;;;;;;;;;;;;;5012643;28;20004;-63
2020/12/30 15:24:07;;;;;;;;;;;;;;;;;;5006479;28;20402;-63
2020/12/30 15:26:34;;;;;;;;;;;;;;;;;;5009374;28;19926;-64
2020/12/30 15:29:00;;;;;;;;;;;;;;;;;;5007640;28;20401;-64
2020/12/30 15:31:27;;;;;;;;;;;;;;;;;;5008689;28;19933;-63
2020/12/30 15:33:53;;;;;;;;;;;;;;;;;;5009968;28;20422;-63
2020/12/30 15:36:20;;;;;;;;;;;;;;;;;;5008686;28;19932;-63
2020/12/30 15:38:46;;;;;;;;;;;;;;;;;;5009370;28;20384;-64
2020/12/30 15:41:13;;;;;;;;;;;;;;;;;;5006459;28;19926;-63
2020/12/30 15:43:39;;;;;;;;;;;;;;;;;;5013022;28;20363;-64
2020/12/30 15:46:05;;;;;;;;;;;;;;;;;;5012033;28;19971;-63
2020/12/30 15:48:32;;;;;;;;;;;;;;;;;;5011857;28;20445;-64
2020/12/30 15:50:58;;;;;;;;;;;;;;;;;;5010413;28;19925;-65
2020/12/30 15:53:25;;;;;;;;;;;;;;;;;;5010403;28;20299;-63
2020/12/30 15:55:52;;;;;;;;;;;;;;;;;;5010568;28;19926;-64
2020/12/30 15:58:18;;;;;;;;;;;;;;;;;;5010547;28;19929;-63
2020/12/30 16:00:45;;;;;;;;;;;;;;;;;;5010297;28;21629;-64
2020/12/30 16:03:11;;;;;;;;;;;;;;;;;;5010149;28;19947;-63
2020/12/30 16:05:38;;;;;;;;;;;;;;;;;;5007292;28;19925;-64
2020/12/30 16:08:04;;;;;;;;;;;;;;;;;;5007762;28;19929;-67
2020/12/30 16:10:30;;;;;;;;;;;;;;;;;;5009730;28;20395;-63
2020/12/30 16:12:57;;;;;;;;;;;;;;;;;;5003504;28;19930;-64
2020/12/30 16:15:23;;;;;;;;;;;;;;;;;;5009479;28;20418;-63
2020/12/30 16:17:50;;;;;;;;;;;;;;;;;;5003188;28;19933;-64
2020/12/30 16:20:16;;;;;;;;;;;;;;;;;;5007078;28;19934;-63
2020/12/30 16:22:43;;;;;;;;;;;;;;;;;;5011125;28;19925;-63
2020/12/30 16:25:09;;;;;;;;;;;;;;;;;;5010736;28;20345;-63
2020/12/30 16:27:36;;;;;;;;;;;;;;;;;;5011183;28;19968;-63
2020/12/30 16:30:02;;;;;;;;;;;;;;;;;;5005019;28;20604;-63
2020/12/30 16:32:29;;;;;;;;;;;;;;;;;;5006607;28;19971;-64
2020/12/30 16:34:57;;;;;;;;;;;;;;;;;;5010391;28;20395;-64
2020/12/30 16:37:23;;;;;;;;;;;;;;;;;;5005575;28;19979;-63
2020/12/30 16:39:50;;;;;;;;;;;;;;;;;;5006375;28;19926;-63